createdAt,value
2023-01-18T00:00:12.179Z,-0.81
2023-01-18T00:01:16.264Z,-0.81
2023-01-18T00:02:20.032Z,-0.81
2023-01-18T00:03:55.801Z,-0.81
2023-01-18T00:04:59.740Z,-0.81
2023-01-18T00:06:03.506Z,-0.81
2023-01-18T00:07:39.245Z,-0.88
2023-01-18T00:08:42.750Z,-0.88
2023-01-18T00:09:46.405Z,-0.88
2023-01-18T00:11:22.344Z,-0.94
2023-01-18T00:12:25.908Z,-0.94
2023-01-18T00:13:30.134Z,-0.94
2023-01-18T00:15:05.835Z,-1.00
2023-01-18T00:16:09.727Z,-1.00
2023-01-18T00:17:13.675Z,-1.00
2023-01-18T00:18:49.525Z,-1.00
2023-01-18T00:19:53.110Z,-1.00
2023-01-18T00:20:56.510Z,-1.00
2023-01-18T00:22:32.391Z,-1.00
2023-01-18T00:23:36.540Z,-1.00
2023-01-18T00:24:40.338Z,-1.00
2023-01-18T00:26:16.353Z,-1.00
2023-01-18T00:27:19.837Z,-1.00
2023-01-18T00:28:23.552Z,-1.00
2023-01-18T00:29:59.505Z,-1.00
2023-01-18T00:31:03.291Z,-1.00
2023-01-18T00:32:07.334Z,-1.00
2023-01-18T00:33:43.603Z,-1.00
2023-01-18T00:34:49.197Z,-1.00
2023-01-18T00:35:53.913Z,-1.00
2023-01-18T00:37:29.765Z,-1.00
2023-01-18T00:38:33.442Z,-1.00
2023-01-18T00:39:36.998Z,-1.00
2023-01-18T00:41:12.945Z,-1.00
2023-01-18T00:42:16.453Z,-1.00
2023-01-18T00:43:20.177Z,-1.00
2023-01-18T00:44:55.958Z,-1.00
2023-01-18T00:45:59.648Z,-1.00
2023-01-18T00:47:03.629Z,-1.00
2023-01-18T00:48:39.324Z,-1.00
2023-01-18T00:49:42.885Z,-1.00
2023-01-18T00:50:46.602Z,-1.00
2023-01-18T00:52:22.687Z,-1.00
2023-01-18T00:53:26.260Z,-1.06
2023-01-18T00:54:29.691Z,-1.06
2023-01-18T00:56:05.282Z,-1.13
2023-01-18T00:57:09.237Z,-1.13
2023-01-18T00:58:12.722Z,-1.13
2023-01-18T00:59:48.433Z,-1.13
2023-01-18T01:00:12.697Z,-1.13
2023-01-18T01:01:16.446Z,-1.19
2023-01-18T01:02:21.203Z,-1.19
2023-01-18T01:03:57.453Z,-1.19
2023-01-18T01:05:00.946Z,-1.19
2023-01-18T01:06:04.573Z,-1.19
2023-01-18T01:07:40.206Z,-1.19
2023-01-18T01:08:43.850Z,-1.19
2023-01-18T01:09:47.444Z,-1.19
2023-01-18T01:11:23.055Z,-1.19
2023-01-18T01:12:26.641Z,-1.19
2023-01-18T01:13:30.497Z,-1.19
2023-01-18T01:15:06.533Z,-1.19
2023-01-18T01:16:10.161Z,-1.19
2023-01-18T01:17:14.394Z,-1.19
2023-01-18T01:18:50.200Z,-1.19
2023-01-18T01:19:53.955Z,-1.19
2023-01-18T01:20:57.759Z,-1.19
2023-01-18T01:22:33.388Z,-1.19
2023-01-18T01:23:37.707Z,-1.25
2023-01-18T01:24:41.377Z,-1.25
2023-01-18T01:26:17.143Z,-1.25
2023-01-18T01:27:20.611Z,-1.25
2023-01-18T01:28:24.093Z,-1.31
2023-01-18T01:29:59.843Z,-1.31
2023-01-18T01:31:03.604Z,-1.31
2023-01-18T01:32:07.279Z,-1.31
2023-01-18T01:33:43.853Z,-1.31
2023-01-18T01:34:47.323Z,-1.31
2023-01-18T01:35:50.959Z,-1.31
2023-01-18T01:37:26.891Z,-1.31
2023-01-18T01:38:30.393Z,-1.31
2023-01-18T01:39:34.137Z,-1.31
2023-01-18T01:41:09.806Z,-1.31
2023-01-18T01:42:13.545Z,-1.31
2023-01-18T01:43:17.245Z,-1.38
2023-01-18T01:44:53.137Z,-1.31
2023-01-18T01:45:57.035Z,-1.38
2023-01-18T01:47:00.821Z,-1.38
2023-01-18T01:48:36.680Z,-1.38
2023-01-18T01:49:40.278Z,-1.38
2023-01-18T01:50:43.824Z,-1.38
2023-01-18T01:52:19.481Z,-1.38
2023-01-18T01:53:23.137Z,-1.38
2023-01-18T01:54:26.903Z,-1.38
2023-01-18T01:56:02.821Z,-1.38
2023-01-18T01:57:06.437Z,-1.38
2023-01-18T01:58:10.087Z,-1.38
2023-01-18T01:59:45.701Z,-1.38
2023-01-18T02:00:12.345Z,-1.38
2023-01-18T02:01:16.114Z,-1.38
2023-01-18T02:02:21.020Z,-1.38
2023-01-18T02:03:57.421Z,-1.38
2023-01-18T02:05:00.888Z,-1.38
2023-01-18T02:06:04.841Z,-1.38
2023-01-18T02:07:40.956Z,-1.38
2023-01-18T02:08:44.416Z,-1.38
2023-01-18T02:09:47.960Z,-1.38
2023-01-18T02:11:23.875Z,-1.38
2023-01-18T02:12:27.608Z,-1.38
2023-01-18T02:13:31.440Z,-1.38
2023-01-18T02:15:07.115Z,-1.38
2023-01-18T02:16:12.384Z,-1.38
2023-01-18T02:17:16.263Z,-1.38
2023-01-18T02:18:52.373Z,-1.38
2023-01-18T02:19:55.884Z,-1.38
2023-01-18T02:20:59.698Z,-1.38
2023-01-18T02:22:35.503Z,-1.44
2023-01-18T02:23:39.514Z,-1.44
2023-01-18T02:24:43.202Z,-1.44
2023-01-18T02:26:18.951Z,-1.44
2023-01-18T02:27:22.593Z,-1.44
2023-01-18T02:28:25.973Z,-1.44
2023-01-18T02:30:02.047Z,-1.44
2023-01-18T02:31:05.857Z,-1.44
2023-01-18T02:32:09.605Z,-1.44
2023-01-18T02:33:47.067Z,-1.44
2023-01-18T02:34:50.623Z,-1.44
2023-01-18T02:35:54.443Z,-1.44
2023-01-18T02:37:30.395Z,-1.44
2023-01-18T02:38:34.067Z,-1.44
2023-01-18T02:39:37.680Z,-1.44
2023-01-18T02:41:13.450Z,-1.44
2023-01-18T02:42:17.199Z,-1.44
2023-01-18T02:43:20.938Z,-1.50
2023-01-18T02:44:56.855Z,-1.50
2023-01-18T02:46:00.521Z,-1.50
2023-01-18T02:47:04.556Z,-1.50
2023-01-18T02:48:40.447Z,-1.50
2023-01-18T02:49:43.991Z,-1.50
2023-01-18T02:50:47.407Z,-1.50
2023-01-18T02:52:23.278Z,-1.50
2023-01-18T02:53:27.094Z,-1.50
2023-01-18T02:54:30.783Z,-1.50
2023-01-18T02:56:06.623Z,-1.56
2023-01-18T02:57:10.282Z,-1.50
2023-01-18T02:58:13.899Z,-1.50
2023-01-18T02:59:49.764Z,-1.50
2023-01-18T03:00:12.181Z,-1.50
2023-01-18T03:01:15.957Z,-1.50
2023-01-18T03:02:20.519Z,-1.50
2023-01-18T03:03:56.754Z,-1.56
2023-01-18T03:05:00.284Z,-1.56
2023-01-18T03:06:04.037Z,-1.56
2023-01-18T03:07:39.812Z,-1.56
2023-01-18T03:08:43.451Z,-1.56
2023-01-18T03:09:47.198Z,-1.56
2023-01-18T03:11:23.114Z,-1.56
2023-01-18T03:12:26.725Z,-1.56
2023-01-18T03:13:30.663Z,-1.56
2023-01-18T03:15:06.474Z,-1.56
2023-01-18T03:16:10.408Z,-1.56
2023-01-18T03:17:13.967Z,-1.56
2023-01-18T03:18:49.941Z,-1.56
2023-01-18T03:19:53.493Z,-1.56
2023-01-18T03:20:59.768Z,-1.56
2023-01-18T03:22:35.730Z,-1.56
2023-01-18T03:23:40.097Z,-1.63
2023-01-18T03:24:43.845Z,-1.63
2023-01-18T03:26:19.560Z,-1.63
2023-01-18T03:27:23.409Z,-1.63
2023-01-18T03:28:27.067Z,-1.63
2023-01-18T03:30:02.884Z,-1.63
2023-01-18T03:31:06.651Z,-1.63
2023-01-18T03:32:10.898Z,-1.63
2023-01-18T03:33:47.146Z,-1.63
2023-01-18T03:34:50.871Z,-1.63
2023-01-18T03:35:54.681Z,-1.63
2023-01-18T03:37:30.208Z,-1.63
2023-01-18T03:38:33.701Z,-1.63
2023-01-18T03:39:37.327Z,-1.63
2023-01-18T03:41:13.299Z,-1.63
2023-01-18T03:42:16.954Z,-1.69
2023-01-18T03:43:20.471Z,-1.63
2023-01-18T03:44:56.393Z,-1.63
2023-01-18T03:46:00.073Z,-1.69
2023-01-18T03:47:03.944Z,-1.69
2023-01-18T03:48:39.361Z,-1.63
2023-01-18T03:49:42.852Z,-1.63
2023-01-18T03:50:46.206Z,-1.69
2023-01-18T03:52:21.935Z,-1.63
2023-01-18T03:53:25.372Z,-1.63
2023-01-18T03:54:28.996Z,-1.56
2023-01-18T03:56:04.972Z,-1.56
2023-01-18T03:57:08.598Z,-1.56
2023-01-18T03:58:12.280Z,-1.56
2023-01-18T03:59:48.163Z,-1.56
2023-01-18T04:00:12.843Z,-1.56
2023-01-18T04:01:16.472Z,-1.56
2023-01-18T04:02:20.781Z,-1.56
2023-01-18T04:03:57.040Z,-1.50
2023-01-18T04:05:00.761Z,-1.50
2023-01-18T04:06:04.472Z,-1.50
2023-01-18T04:07:40.357Z,-1.50
2023-01-18T04:08:43.871Z,-1.50
2023-01-18T04:09:47.473Z,-1.50
2023-01-18T04:11:23.349Z,-1.50
2023-01-18T04:12:26.771Z,-1.44
2023-01-18T04:13:30.390Z,-1.44
2023-01-18T04:15:07.558Z,-1.50
2023-01-18T04:16:11.007Z,-1.50
2023-01-18T04:17:14.786Z,-1.50
2023-01-18T04:18:50.464Z,-1.50
2023-01-18T04:19:54.169Z,-1.50
2023-01-18T04:20:57.649Z,-1.50
2023-01-18T04:22:33.513Z,-1.50
2023-01-18T04:23:37.413Z,-1.50
2023-01-18T04:24:40.901Z,-1.50
2023-01-18T04:26:16.809Z,-1.56
2023-01-18T04:27:20.831Z,-1.50
2023-01-18T04:28:25.245Z,-1.50
2023-01-18T04:30:01.263Z,-1.56
2023-01-18T04:31:04.844Z,-1.56
2023-01-18T04:32:08.998Z,-1.56
2023-01-18T04:33:45.187Z,-1.56
2023-01-18T04:34:49.036Z,-1.56
2023-01-18T04:35:52.644Z,-1.56
2023-01-18T04:37:28.705Z,-1.56
2023-01-18T04:38:32.272Z,-1.63
2023-01-18T04:39:36.001Z,-1.63
2023-01-18T04:41:12.117Z,-1.63
2023-01-18T04:42:15.680Z,-1.63
2023-01-18T04:43:19.334Z,-1.69
2023-01-18T04:44:55.045Z,-1.63
2023-01-18T04:45:58.388Z,-1.63
2023-01-18T04:47:02.426Z,-1.69
2023-01-18T04:48:38.180Z,-1.69
2023-01-18T04:49:42.108Z,-1.69
2023-01-18T04:50:45.665Z,-1.69
2023-01-18T04:52:21.595Z,-1.75
2023-01-18T04:53:25.201Z,-1.75
2023-01-18T04:54:28.653Z,-1.75
2023-01-18T04:56:04.592Z,-1.75
2023-01-18T04:57:08.300Z,-1.75
2023-01-18T04:58:12.077Z,-1.75
2023-01-18T04:59:48.009Z,-1.75
2023-01-18T05:00:12.589Z,-1.75
2023-01-18T05:01:16.455Z,-1.75
2023-01-18T05:02:21.081Z,-1.75
2023-01-18T05:03:57.173Z,-1.75
2023-01-18T05:05:00.887Z,-1.75
2023-01-18T05:05:41.293Z,-1.75
2023-01-18T05:06:44.951Z,-1.75
2023-01-18T05:07:48.616Z,-1.75
2023-01-18T05:09:24.858Z,-1.75
2023-01-18T05:10:28.611Z,-1.75
2023-01-18T05:11:32.463Z,-1.75
2023-01-18T05:13:08.743Z,-1.81
2023-01-18T05:14:12.384Z,-1.81
2023-01-18T05:15:16.217Z,-1.81
2023-01-18T05:16:53.215Z,-1.81
2023-01-18T05:17:56.990Z,-1.81
2023-01-18T05:19:00.963Z,-1.75
2023-01-18T05:20:36.995Z,-1.81
2023-01-18T05:21:40.888Z,-1.75
2023-01-18T05:22:44.616Z,-1.75
2023-01-18T05:24:21.015Z,-1.81
2023-01-18T05:25:27.973Z,-1.75
2023-01-18T05:26:31.643Z,-1.75
2023-01-18T05:28:07.815Z,-1.75
2023-01-18T05:29:11.484Z,-1.75
2023-01-18T05:30:15.349Z,-1.75
2023-01-18T05:31:51.443Z,-1.75
2023-01-18T05:32:55.106Z,-1.75
2023-01-18T05:33:59.354Z,-1.75
2023-01-18T05:35:35.166Z,-1.69
2023-01-18T05:36:38.957Z,-1.69
2023-01-18T05:37:42.606Z,-1.69
2023-01-18T05:39:18.529Z,-1.69
2023-01-18T05:40:22.501Z,-1.63
2023-01-18T05:41:26.240Z,-1.63
2023-01-18T05:43:02.687Z,-1.63
2023-01-18T05:44:06.366Z,-1.56
2023-01-18T05:45:10.237Z,-1.56
2023-01-18T05:46:46.357Z,-1.50
2023-01-18T05:47:50.026Z,-1.50
2023-01-18T05:48:53.787Z,-1.50
2023-01-18T05:50:29.510Z,-1.50
2023-01-18T05:51:33.315Z,-1.44
2023-01-18T05:52:36.994Z,-1.44
2023-01-18T05:54:13.498Z,-1.38
2023-01-18T05:55:17.227Z,-1.38
2023-01-18T05:56:20.828Z,-1.38
2023-01-18T05:57:56.841Z,-1.31
2023-01-18T05:59:00.557Z,-1.31
2023-01-18T06:00:12.745Z,-1.31
2023-01-18T06:01:16.565Z,-1.31
2023-01-18T06:02:20.407Z,-1.31
2023-01-18T06:03:57.402Z,-1.25
2023-01-18T06:05:01.404Z,-1.25
2023-01-18T06:06:05.014Z,-1.31
2023-01-18T06:07:42.158Z,-1.31
2023-01-18T06:08:45.838Z,-1.31
2023-01-18T06:09:49.694Z,-1.31
2023-01-18T06:11:25.721Z,-1.31
2023-01-18T06:12:29.459Z,-1.31
2023-01-18T06:13:33.726Z,-1.31
2023-01-18T06:15:09.662Z,-1.31
2023-01-18T06:16:13.519Z,-1.38
2023-01-18T06:17:17.607Z,-1.38
2023-01-18T06:18:53.498Z,-1.38
2023-01-18T06:19:57.087Z,-1.44
2023-01-18T06:21:01.603Z,-1.44
2023-01-18T06:22:37.754Z,-1.44
2023-01-18T06:23:42.079Z,-1.44
2023-01-18T06:24:45.814Z,-1.50
2023-01-18T06:26:21.699Z,-1.50
2023-01-18T06:27:25.557Z,-1.50
2023-01-18T06:28:30.795Z,-1.50
2023-01-18T06:30:06.857Z,-1.56
2023-01-18T06:31:10.616Z,-1.56
2023-01-18T06:32:14.959Z,-1.56
2023-01-18T06:33:51.035Z,-1.63
2023-01-18T06:34:54.779Z,-1.56
2023-01-18T06:35:58.434Z,-1.63
2023-01-18T06:37:34.277Z,-1.63
2023-01-18T06:38:37.905Z,-1.63
2023-01-18T06:39:41.812Z,-1.63
2023-01-18T06:41:20.514Z,-1.69
2023-01-18T06:42:24.173Z,-1.69
2023-01-18T06:43:27.808Z,-1.69
2023-01-18T06:45:03.556Z,-1.69
2023-01-18T06:46:07.361Z,-1.63
2023-01-18T06:47:11.082Z,-1.69
2023-01-18T06:48:46.786Z,-1.69
2023-01-18T06:49:50.537Z,-1.69
2023-01-18T06:50:54.146Z,-1.69
2023-01-18T06:52:30.311Z,-1.75
2023-01-18T06:53:36.814Z,-1.75
2023-01-18T06:54:41.643Z,-1.75
2023-01-18T06:56:17.489Z,-1.75
2023-01-18T06:57:21.261Z,-1.75
2023-01-18T06:58:25.058Z,-1.75
2023-01-18T07:00:00.769Z,-1.75
2023-01-18T07:00:12.353Z,-1.75
2023-01-18T07:01:16.376Z,-1.81
2023-01-18T07:02:20.843Z,-1.81
2023-01-18T07:03:56.614Z,-1.81
2023-01-18T07:05:00.750Z,-1.81
2023-01-18T07:06:04.546Z,-1.81
2023-01-18T07:07:40.441Z,-1.88
2023-01-18T07:08:44.141Z,-1.88
2023-01-18T07:09:47.746Z,-1.88
2023-01-18T07:11:24.191Z,-1.88
2023-01-18T07:12:27.778Z,-1.88
2023-01-18T07:13:31.938Z,-1.88
2023-01-18T07:15:20.790Z,-1.94
2023-01-18T07:16:25.031Z,-1.94
2023-01-18T07:17:29.030Z,-1.94
2023-01-18T07:19:04.702Z,-1.94
2023-01-18T07:20:08.524Z,-1.94
2023-01-18T07:21:15.025Z,-1.94
2023-01-18T07:22:50.957Z,-1.94
2023-01-18T07:23:55.178Z,-1.94
2023-01-18T07:24:58.743Z,-1.94
2023-01-18T07:26:34.670Z,-2.00
2023-01-18T07:27:38.161Z,-2.00
2023-01-18T07:28:41.657Z,-2.00
2023-01-18T07:30:17.769Z,-2.00
2023-01-18T07:31:21.420Z,-2.00
2023-01-18T07:32:25.401Z,-2.00
2023-01-18T07:34:01.213Z,-2.00
2023-01-18T07:35:04.911Z,-2.00
2023-01-18T07:36:08.746Z,-2.00
2023-01-18T07:37:44.797Z,-2.00
2023-01-18T07:38:48.842Z,-2.00
2023-01-18T07:39:52.476Z,-2.00
2023-01-18T07:41:30.210Z,-2.00
2023-01-18T07:42:34.769Z,-1.94
2023-01-18T07:43:39.030Z,-1.94
2023-01-18T07:45:15.601Z,-1.94
2023-01-18T07:46:19.277Z,-1.94
2023-01-18T07:47:23.203Z,-1.94
2023-01-18T07:48:59.421Z,-1.94
2023-01-18T07:50:03.063Z,-1.94
2023-01-18T07:51:06.760Z,-1.94
2023-01-18T07:52:42.611Z,-1.94
2023-01-18T07:53:47.036Z,-1.94
2023-01-18T07:54:50.657Z,-1.94
2023-01-18T07:56:26.685Z,-1.94
2023-01-18T07:57:30.266Z,-1.88
2023-01-18T07:58:33.929Z,-1.88
2023-01-18T08:00:12.142Z,-1.88
2023-01-18T08:01:15.898Z,-1.94
2023-01-18T08:02:20.498Z,-1.88
2023-01-18T08:03:56.641Z,-1.88
2023-01-18T08:05:00.323Z,-1.94
2023-01-18T08:06:04.059Z,-1.88
2023-01-18T08:07:40.104Z,-1.94
2023-01-18T08:08:46.285Z,-1.94
2023-01-18T08:09:50.137Z,-1.94
2023-01-18T08:11:25.895Z,-1.94
2023-01-18T08:12:29.493Z,-1.88
2023-01-18T08:13:33.508Z,-1.94
2023-01-18T08:15:09.549Z,-1.88
2023-01-18T08:16:13.308Z,-1.88
2023-01-18T08:17:17.034Z,-1.94
2023-01-18T08:18:53.025Z,-1.94
2023-01-18T08:19:56.700Z,-1.94
2023-01-18T08:21:00.495Z,-1.94
2023-01-18T08:22:36.121Z,-1.94
2023-01-18T08:23:40.381Z,-1.94
2023-01-18T08:24:44.175Z,-1.94
2023-01-18T08:26:20.322Z,-1.94
2023-01-18T08:27:27.024Z,-1.94
2023-01-18T08:28:30.917Z,-1.94
2023-01-18T08:30:06.968Z,-1.94
2023-01-18T08:31:10.818Z,-1.94
2023-01-18T08:32:15.000Z,-1.88
2023-01-18T08:33:51.260Z,-1.88
2023-01-18T08:34:54.857Z,-1.88
2023-01-18T08:35:58.738Z,-1.88
2023-01-18T08:37:34.881Z,-1.88
2023-01-18T08:38:38.439Z,-1.88
2023-01-18T08:39:42.085Z,-1.88
2023-01-18T08:41:18.134Z,-1.88
2023-01-18T08:42:22.059Z,-1.88
2023-01-18T08:43:25.793Z,-1.88
2023-01-18T08:45:01.900Z,-1.81
2023-01-18T08:46:05.676Z,-1.81
2023-01-18T08:47:09.730Z,-1.81
2023-01-18T08:48:45.694Z,-1.81
2023-01-18T08:49:49.143Z,-1.81
2023-01-18T08:50:52.860Z,-1.81
2023-01-18T08:52:29.167Z,-1.81
2023-01-18T08:53:33.450Z,-1.81
2023-01-18T08:54:37.108Z,-1.75
2023-01-18T08:56:13.241Z,-1.75
2023-01-18T08:57:17.050Z,-1.75
2023-01-18T08:58:20.957Z,-1.69
2023-01-18T08:59:57.089Z,-1.69
2023-01-18T09:00:12.935Z,-1.69
2023-01-18T09:01:19.632Z,-1.69
2023-01-18T09:02:24.558Z,-1.63
2023-01-18T09:04:01.189Z,-1.63
2023-01-18T09:05:04.961Z,-1.56
2023-01-18T09:06:10.561Z,-1.56
2023-01-18T09:07:47.980Z,-1.56
2023-01-18T09:08:51.684Z,-1.50
2023-01-18T09:09:55.343Z,-1.50
2023-01-18T09:11:31.656Z,-1.44
2023-01-18T09:12:35.428Z,-1.38
2023-01-18T09:13:54.519Z,-1.38
2023-01-18T09:15:35.213Z,-1.31
2023-01-18T09:16:39.202Z,-1.31
2023-01-18T09:17:42.926Z,-1.31
2023-01-18T09:19:18.742Z,-1.25
2023-01-18T09:20:22.354Z,-1.19
2023-01-18T09:21:26.026Z,-1.19
2023-01-18T09:23:02.040Z,-1.13
2023-01-18T09:24:05.657Z,-1.13
2023-01-18T09:25:09.341Z,-1.06
2023-01-18T09:26:45.456Z,-1.06
2023-01-18T09:27:49.196Z,-1.00
2023-01-18T09:28:52.901Z,-1.00
2023-01-18T09:30:28.936Z,-0.94
2023-01-18T09:31:32.785Z,-0.94
2023-01-18T09:32:36.776Z,-0.94
2023-01-18T09:34:52.327Z,-0.88
2023-01-18T09:35:56.034Z,-0.81
2023-01-18T09:36:59.739Z,-0.81
2023-01-18T09:38:35.613Z,-0.75
2023-01-18T09:39:51.009Z,-0.75
2023-01-18T09:40:55.351Z,-0.69
2023-01-18T09:42:33.804Z,-0.69
2023-01-18T09:43:37.952Z,-0.69
2023-01-18T09:44:41.490Z,-0.63
2023-01-18T09:46:17.732Z,-0.63
2023-01-18T09:47:21.917Z,-0.63
2023-01-18T09:48:25.512Z,-0.56
2023-01-18T09:50:01.557Z,-0.56
2023-01-18T09:51:05.413Z,-0.50
2023-01-18T09:52:09.161Z,-0.50
2023-01-18T09:53:45.657Z,-0.50
2023-01-18T09:54:49.410Z,-0.44
2023-01-18T09:55:53.182Z,-0.44
2023-01-18T09:57:29.123Z,-0.38
2023-01-18T09:58:32.804Z,-0.38
2023-01-18T09:59:36.651Z,-0.38
2023-01-18T10:00:12.556Z,-0.31
2023-01-18T10:01:17.056Z,-0.31
2023-01-18T10:02:21.946Z,-0.31
2023-01-18T10:03:58.608Z,-0.25
2023-01-18T10:05:02.192Z,-0.25
2023-01-18T10:06:05.895Z,-0.19
2023-01-18T10:07:41.880Z,-0.19
2023-01-18T10:08:45.412Z,-0.19
2023-01-18T10:09:49.231Z,-0.13
2023-01-18T10:11:25.192Z,-0.13
2023-01-18T10:12:28.877Z,-0.06
2023-01-18T10:13:33.850Z,-0.06
2023-01-18T10:15:09.728Z,-0.06
2023-01-18T10:16:13.503Z,0.00
2023-01-18T10:17:17.483Z,0.00
2023-01-18T10:18:53.458Z,0.06
2023-01-18T10:19:57.192Z,0.06
2023-01-18T10:21:00.863Z,0.13
2023-01-18T10:22:36.926Z,0.19
2023-01-18T10:23:41.339Z,0.19
2023-01-18T10:24:45.157Z,0.19
2023-01-18T10:26:21.495Z,0.31
2023-01-18T10:27:25.283Z,0.31
2023-01-18T10:28:29.356Z,0.31
2023-01-18T10:30:05.181Z,0.38
2023-01-18T10:31:09.009Z,0.38
2023-01-18T10:32:13.162Z,0.44
2023-01-18T10:33:49.315Z,0.44
2023-01-18T10:34:52.936Z,0.50
2023-01-18T10:35:56.691Z,0.50
2023-01-18T10:37:36.052Z,0.56
2023-01-18T10:38:40.431Z,0.56
2023-01-18T10:39:44.094Z,0.63
2023-01-18T10:41:19.894Z,0.63
2023-01-18T10:42:23.604Z,0.69
2023-01-18T10:43:27.511Z,0.75
2023-01-18T10:45:03.461Z,0.81
2023-01-18T10:46:07.497Z,0.81
2023-01-18T10:47:11.248Z,0.81
2023-01-18T10:48:47.971Z,0.88
2023-01-18T10:49:51.480Z,0.94
2023-01-18T10:50:55.160Z,0.94
2023-01-18T10:52:32.166Z,1.00
2023-01-18T10:53:36.560Z,1.06
2023-01-18T10:54:40.095Z,1.06
2023-01-18T10:56:16.039Z,1.13
2023-01-18T10:57:19.713Z,1.13
2023-01-18T10:58:23.490Z,1.19
2023-01-18T10:59:59.484Z,1.25
2023-01-18T11:00:12.229Z,1.25
2023-01-18T11:01:16.218Z,1.31
2023-01-18T11:02:21.428Z,1.38
2023-01-18T11:03:57.906Z,1.50
2023-01-18T11:05:01.707Z,1.50
2023-01-18T11:06:05.452Z,1.50
2023-01-18T11:07:41.584Z,1.56
2023-01-18T11:08:45.913Z,1.56
2023-01-18T11:09:49.599Z,1.63
2023-01-18T11:11:25.973Z,1.63
2023-01-18T11:12:29.689Z,1.69
2023-01-18T11:13:34.039Z,1.69
2023-01-18T11:15:09.948Z,1.69
2023-01-18T11:16:13.920Z,1.69
2023-01-18T11:17:17.960Z,1.69
2023-01-18T11:18:54.113Z,1.81
2023-01-18T11:19:57.980Z,1.81
2023-01-18T11:21:01.659Z,1.88
2023-01-18T11:22:38.627Z,1.88
2023-01-18T11:23:43.890Z,1.94
2023-01-18T11:24:47.726Z,1.94
2023-01-18T11:26:23.823Z,1.94
2023-01-18T11:27:27.405Z,1.94
2023-01-18T11:28:31.001Z,2.00
2023-01-18T11:30:09.435Z,2.00
2023-01-18T11:31:13.102Z,2.00
2023-01-18T11:32:20.113Z,2.06
2023-01-18T11:33:55.956Z,2.06
2023-01-18T11:34:59.451Z,2.06
2023-01-18T11:36:03.257Z,2.06
2023-01-18T11:37:39.302Z,2.13
2023-01-18T11:38:44.000Z,2.13
2023-01-18T11:39:47.740Z,2.13
2023-01-18T11:41:23.803Z,2.19
2023-01-18T11:42:27.413Z,2.19
2023-01-18T11:43:31.085Z,2.25
2023-01-18T11:45:07.013Z,2.25
2023-01-18T11:46:11.193Z,2.31
2023-01-18T11:47:15.120Z,2.31
2023-01-18T11:48:51.288Z,2.31
2023-01-18T11:49:54.969Z,2.38
2023-01-18T11:51:14.669Z,2.38
2023-01-18T11:52:53.010Z,2.38
2023-01-18T11:53:56.693Z,2.38
2023-01-18T11:55:00.379Z,2.38
2023-01-18T11:56:36.295Z,2.44
2023-01-18T11:57:40.124Z,2.44
2023-01-18T11:58:44.532Z,2.44
2023-01-18T12:00:12.183Z,2.44
2023-01-18T12:01:16.258Z,2.44
2023-01-18T12:02:20.106Z,2.50
2023-01-18T12:03:56.624Z,2.50
2023-01-18T12:05:00.292Z,2.50
2023-01-18T12:06:03.973Z,2.50
2023-01-18T12:07:40.142Z,2.56
2023-01-18T12:08:44.403Z,2.63
2023-01-18T12:09:48.119Z,2.63
2023-01-18T12:11:24.459Z,2.63
2023-01-18T12:12:28.773Z,2.69
2023-01-18T12:13:32.473Z,2.69
2023-01-18T12:15:08.400Z,2.75
2023-01-18T12:16:12.221Z,2.75
2023-01-18T12:17:16.501Z,2.81
2023-01-18T12:19:00.803Z,2.81
2023-01-18T12:20:04.511Z,2.81
2023-01-18T12:21:08.289Z,2.88
2023-01-18T12:22:44.315Z,2.94
2023-01-18T12:23:48.142Z,2.94
2023-01-18T12:24:51.637Z,3.00
2023-01-18T12:26:46.264Z,3.00
2023-01-18T12:27:49.919Z,3.00
2023-01-18T12:28:54.474Z,3.00
2023-01-18T12:30:30.550Z,3.06
2023-01-18T12:31:34.696Z,3.06
2023-01-18T12:32:38.365Z,3.13
2023-01-18T12:34:29.887Z,3.25
2023-01-18T12:35:33.527Z,3.31
2023-01-18T12:36:37.164Z,3.31
2023-01-18T12:38:13.708Z,3.31
2023-01-18T12:39:17.690Z,3.38
2023-01-18T12:40:21.289Z,3.44
2023-01-18T12:41:57.169Z,3.44
2023-01-18T12:43:00.930Z,3.50
2023-01-18T12:44:04.527Z,3.44
2023-01-18T12:45:40.661Z,3.44
2023-01-18T12:46:44.628Z,3.44
2023-01-18T12:47:48.234Z,3.44
2023-01-18T12:49:24.813Z,3.50
2023-01-18T12:50:28.366Z,3.50
2023-01-18T12:51:32.154Z,3.50
2023-01-18T12:53:26.478Z,3.44
2023-01-18T12:54:30.322Z,3.38
2023-01-18T12:55:34.289Z,3.38
2023-01-18T12:57:11.396Z,3.38
2023-01-18T12:58:15.334Z,3.38
2023-01-18T12:59:18.829Z,3.38
2023-01-18T13:00:12.796Z,3.38
2023-01-18T13:01:16.965Z,3.31
2023-01-18T13:02:21.671Z,3.31
2023-01-18T13:04:00.147Z,3.25
2023-01-18T13:05:03.639Z,3.31
2023-01-18T13:06:07.257Z,3.25
2023-01-18T13:07:43.248Z,3.25
2023-01-18T13:08:47.423Z,3.31
2023-01-18T13:09:51.129Z,3.25
2023-01-18T13:11:27.105Z,3.25
2023-01-18T13:12:30.895Z,3.19
2023-01-18T13:13:34.730Z,3.19
2023-01-18T13:15:13.711Z,3.13
2023-01-18T13:16:17.624Z,3.13
2023-01-18T13:17:21.386Z,3.13
2023-01-18T13:18:57.056Z,3.13
2023-01-18T13:20:00.761Z,3.13
2023-01-18T13:21:04.551Z,3.13
2023-01-18T13:22:40.444Z,3.19
2023-01-18T13:23:44.034Z,3.19
2023-01-18T13:24:47.809Z,3.19
2023-01-18T13:26:23.810Z,3.19
2023-01-18T13:27:27.404Z,3.19
2023-01-18T13:28:31.449Z,3.19
2023-01-18T13:30:07.800Z,3.19
2023-01-18T13:31:11.470Z,3.19
2023-01-18T13:32:15.657Z,3.19
2023-01-18T13:33:51.464Z,3.19
2023-01-18T13:35:08.874Z,3.13
2023-01-18T13:36:24.364Z,3.19
2023-01-18T13:38:23.733Z,3.19
2023-01-18T13:39:42.081Z,3.19
2023-01-18T13:40:46.675Z,3.13
2023-01-18T13:42:22.599Z,3.19
2023-01-18T13:43:26.267Z,3.19
2023-01-18T13:44:30.078Z,3.19
2023-01-18T13:46:06.189Z,3.19
2023-01-18T13:47:10.224Z,3.19
2023-01-18T13:48:14.083Z,3.19
2023-01-18T13:50:11.085Z,3.13
2023-01-18T13:51:14.931Z,3.13
2023-01-18T13:52:18.514Z,3.13
2023-01-18T13:53:54.801Z,3.19
2023-01-18T13:54:58.521Z,3.19
2023-01-18T13:56:02.035Z,3.19
2023-01-18T13:57:37.956Z,3.19
2023-01-18T13:58:42.300Z,3.19
2023-01-18T13:59:45.886Z,3.19
2023-01-18T14:00:14.121Z,3.19
2023-01-18T14:01:18.093Z,3.25
2023-01-18T14:02:22.400Z,3.25
2023-01-18T14:03:58.747Z,3.25
2023-01-18T14:05:02.548Z,3.25
2023-01-18T14:06:06.932Z,3.25
2023-01-18T14:07:43.163Z,3.25
2023-01-18T14:08:46.690Z,3.25
2023-01-18T14:09:50.143Z,3.31
2023-01-18T14:11:26.053Z,3.31
2023-01-18T14:12:29.903Z,3.31
2023-01-18T14:13:34.228Z,3.25
2023-01-18T14:15:09.884Z,3.19
2023-01-18T14:16:13.850Z,3.19
2023-01-18T14:17:17.758Z,3.13
2023-01-18T14:19:16.325Z,3.13
2023-01-18T14:20:19.947Z,3.13
2023-01-18T14:21:23.904Z,3.06
2023-01-18T14:23:00.521Z,3.06
2023-01-18T14:24:06.069Z,3.06
2023-01-18T14:25:09.820Z,3.06
2023-01-18T14:26:45.670Z,3.06
2023-01-18T14:27:49.270Z,3.06
2023-01-18T14:28:52.940Z,3.06
2023-01-18T14:30:28.921Z,3.06
2023-01-18T14:31:32.684Z,3.06
2023-01-18T14:32:36.542Z,3.06
2023-01-18T14:34:13.074Z,3.00
2023-01-18T14:35:16.690Z,3.00
2023-01-18T14:36:23.956Z,3.00
2023-01-18T14:38:16.553Z,3.00
2023-01-18T14:39:20.959Z,3.00
2023-01-18T14:40:24.652Z,3.00
2023-01-18T14:42:00.500Z,2.94
2023-01-18T14:43:04.098Z,3.00
2023-01-18T14:44:07.984Z,2.94
2023-01-18T14:46:04.043Z,2.94
2023-01-18T14:47:23.223Z,2.94
2023-01-18T14:48:27.661Z,2.94
2023-01-18T14:50:03.683Z,2.88
2023-01-18T14:51:07.275Z,2.88
2023-01-18T14:52:11.433Z,2.88
2023-01-18T14:53:47.644Z,2.88
2023-01-18T14:54:51.594Z,2.88
2023-01-18T14:55:55.260Z,2.88
2023-01-18T14:57:31.112Z,2.88
2023-01-18T14:58:34.825Z,2.94
2023-01-18T14:59:38.560Z,2.94
2023-01-18T15:00:12.183Z,2.94
2023-01-18T15:01:16.219Z,2.94
2023-01-18T15:02:21.362Z,2.94
2023-01-18T15:03:59.173Z,2.94
2023-01-18T15:05:02.946Z,2.94
2023-01-18T15:06:06.644Z,2.88
2023-01-18T15:07:42.364Z,2.88
2023-01-18T15:08:47.134Z,2.88
2023-01-18T15:09:50.790Z,2.94
2023-01-18T15:11:26.712Z,2.94
2023-01-18T15:12:30.373Z,2.94
2023-01-18T15:13:34.775Z,2.88
2023-01-18T15:15:10.960Z,2.88
2023-01-18T15:16:14.765Z,2.88
2023-01-18T15:17:18.932Z,2.88
2023-01-18T15:18:54.783Z,2.88
2023-01-18T15:19:58.584Z,2.88
2023-01-18T15:21:02.322Z,2.81
2023-01-18T15:22:38.145Z,2.81
2023-01-18T15:23:42.175Z,2.81
2023-01-18T15:24:45.958Z,2.81
2023-01-18T15:26:21.989Z,2.75
2023-01-18T15:27:25.761Z,2.75
2023-01-18T15:28:29.556Z,2.75
2023-01-18T15:30:07.311Z,2.75
2023-01-18T15:31:11.155Z,2.75
2023-01-18T15:32:15.177Z,2.75
2023-01-18T15:33:51.253Z,2.69
2023-01-18T15:34:55.036Z,2.69
2023-01-18T15:35:58.812Z,2.63
2023-01-18T15:37:34.797Z,2.63
2023-01-18T15:38:39.142Z,2.63
2023-01-18T15:39:43.160Z,2.63
2023-01-18T15:41:18.924Z,2.63
2023-01-18T15:42:22.801Z,2.56
2023-01-18T15:43:26.412Z,2.56
2023-01-18T15:45:02.362Z,2.50
2023-01-18T15:46:06.404Z,2.50
2023-01-18T15:47:10.495Z,2.50
2023-01-18T15:48:47.733Z,2.50
2023-01-18T15:49:51.396Z,2.50
2023-01-18T15:50:55.321Z,2.44
2023-01-18T15:52:31.625Z,2.44
2023-01-18T15:53:37.584Z,2.44
2023-01-18T15:54:41.348Z,2.44
2023-01-18T15:56:17.333Z,2.44
2023-01-18T15:57:20.932Z,2.38
2023-01-18T15:58:27.672Z,2.38
2023-01-18T16:00:12.965Z,2.38
2023-01-18T16:01:16.920Z,2.38
2023-01-18T16:02:21.432Z,2.38
2023-01-18T16:03:57.940Z,2.38
2023-01-18T16:05:01.747Z,2.38